Latest Weather Observations for Paraburdoo

IDW60801

Issued at 12:02 pm WST Saturday 7 March 2015 (issued every 30 minutes, with the page automatically refreshed every 10 minutes)

About weather observations | Map of weather stations | Latest weather observations for WA | Other Formats
Station Details ID: 007185 Name: PARABURDOO AERO Lat: -23.17 Lon: 117.75 Height: 423.7 m
Data from the previous 72 hours. | See also: Recent months at Paraburdoo
Date/Time
WST
Temp
°C
App
Temp
°C
Dew
Point
Rel
Hum
%
Delta-T
°C
Wind Press
QNH
hPa
Press
MSL
hPa
Rain
since 9 am
mm
Dir
 
Spd
km/h
Gust
km/h
Spd
kts
Gust
kts
07/12:00pm 29.5 29.9 20.6 58 6.0 ESE 19 24 10 13 1012.9 1009.7 0.2
07/11:30am 28.8 28.9 20.3 60 5.7 ESE 20 28 11 15 1013.2 1010.0 0.2
07/11:00am 28.0 28.8 21.8 69 4.2 E 20 26 11 14 1013.6 1010.3 0.2
07/10:30am 27.3 28.1 22.5 75 3.3 E 22 30 12 16 1013.8 1010.5 0.2
07/10:00am 26.8 28.7 23.5 82 2.3 ESE 19 26 10 14 1014.0 1010.7 0.0
07/09:30am 26.0 28.4 24.6 92 1.0 ESE 20 26 11 14 1014.2 1010.9 0.0
07/09:00am 24.8 26.6 23.6 93 0.8 ESE 20 28 11 15 1014.2 1010.9 55.8
07/08:30am 23.9 26.3 23.6 98 0.2 SE 17 24 9 13 1014.2 1010.9 55.8
07/08:00am 22.5 24.5 22.3 99 0.1 SE 15 20 8 11 1013.9 1010.6 55.8
07/07:30am 22.2 23.1 22.0 99 0.1 NE 20 28 11 15 1013.0 1009.8 55.8
07/07:00am 21.8 23.6 21.8 100 0.0 ENE 15 22 8 12 1012.8 1009.5 55.8
07/06:30am 21.4 24.7 21.4 100 0.0 E 6 11 3 6 1013.3 1010.1 55.8
07/06:00am 21.6 24.3 21.4 99 0.1 NNE 9 15 5 8 1013.1 1009.9 55.6
07/05:30am 21.4 22.6 21.4 100 0.0 ENE 17 22 9 12 1013.3 1010.1 54.8
07/05:00am 21.1 21.6 21.1 100 0.0 E 20 26 11 14 1013.9 1010.6 52.6
07/04:30am 21.8 21.1 21.8 100 0.0 ENE 28 41 15 22 1014.9 1011.6 50.2
07/04:28am 22.2 22.1 22.2 100 0.0 ENE 26 41 14 22 1015.0 1011.7 50.2
07/04:00am 22.8 25.9 22.8 100 0.0 ENE 11 15 6 8 1014.8 1011.5 48.2
07/03:46am 22.7 25.3 22.7 100 0.0 NNE 13 15 7 8 1014.7 1011.4 47.2
07/03:30am 22.7 25.7 22.7 100 0.0 ENE 11 17 6 9 1014.5 1011.2 46.0
07/03:05am 22.6 25.6 22.6 100 0.0 ESE 11 15 6 8 1014.4 1011.1 43.6
07/03:00am 22.6 25.6 22.6 100 0.0 ESE 11 15 6 8 1014.3 1011.0 43.2
07/02:57am 22.5 25.8 22.5 100 0.0 ESE 9 15 5 8 1014.4 1011.1 43.0
07/02:52am 22.6 25.9 22.6 100 0.0 ESE 9 13 5 7 1014.4 1011.1 42.6
07/02:46am 22.6 26.5 22.6 100 0.0 E 6 9 3 5 1014.5 1011.2 42.2
07/02:34am 22.5 26.2 22.5 100 0.0 ESE 7 9 4 5 1014.4 1011.1 41.2
07/02:33am 22.5 26.2 22.5 100 0.0 ESE 7 9 4 5 1014.4 1011.1 41.2
07/02:30am 22.6 26.3 22.6 100 0.0 SE 7 9 4 5 1014.3 1011.0 41.0
07/02:00am 22.6 25.9 22.6 100 0.0 WSW 9 11 5 6 1013.8 1010.5 38.0
07/01:53am 22.7 25.7 22.7 100 0.0 W 11 13 6 7 1013.9 1010.6 37.6
07/01:33am 22.6 25.6 22.6 100 0.0 WSW 11 13 6 7 1014.2 1010.9 36.0
07/01:31am 22.5 25.4 22.5 100 0.0 WSW 11 13 6 7 1014.1 1010.8 35.6
07/01:30am 22.6 25.6 22.6 100 0.0 WSW 11 13 6 7 1014.1 1010.8 35.6
07/01:12am 22.6 25.2 22.6 100 0.0 W 13 17 7 9 1013.8 1010.5 34.2
07/01:00am 22.6 24.8 22.6 100 0.0 WNW 15 20 8 11 1013.6 1010.3 32.8
07/12:33am 23.0 23.7 23.0 100 0.0 WNW 24 30 13 16 1013.6 1010.3 31.0
07/12:30am 23.0 24.1 23.0 100 0.0 WNW 22 30 12 16 1013.6 1010.3 30.8
07/12:00am 22.7 24.2 22.7 100 0.0 WNW 19 28 10 15 1014.2 1010.9 25.6
 
Date/Time
WST
Temp
°C
App
Temp
°C
Dew
Point
Rel
Hum
%
Delta-T
°C
Wind Press
QNH
hPa
Press
MSL
hPa
Rain
since 9 am
mm
Dir
 
Spd
km/h
Gust
km/h
Spd
kts
Gust
kts
06/11:36pm 23.5 26.9 23.3 99 0.1 NNE 11 20 6 11 1013.9 1010.6 8.6
06/11:30pm 24.2 28.0 24.0 99 0.1 N 11 20 6 11 1013.8 1010.5 7.6
06/11:00pm 24.7 27.0 24.5 99 0.1 NE 20 32 11 17 1012.8 1009.5 6.2
06/10:30pm 24.7 27.6 24.4 98 0.2 NW 17 22 9 12 1012.0 1008.7 6.0
06/10:29pm 24.7 27.6 24.4 98 0.2 NW 17 24 9 13 1012.0 1008.7 6.0
06/10:10pm 24.4 24.0 23.0 92 1.0 NW 30 41 16 22 1012.2 1008.9 5.2
06/10:00pm 24.9 25.8 24.6 98 0.2 NW 28 46 15 25 1012.6 1009.3 3.2
06/09:57pm 24.9 25.8 24.6 98 0.2 NW 28 46 15 25 1012.6 1009.3 3.0
06/09:30pm 25.7 28.4 24.7 94 0.7 SW 19 22 10 12 1012.1 1008.8 3.0
06/09:00pm 26.4 26.6 22.0 77 3.0 SSE 24 32 13 17 1012.3 1009.0 3.0
06/08:30pm 25.8 28.5 25.1 96 0.5 SSW 20 30 11 16 1012.5 1009.2 2.8
06/08:09pm 26.4 27.4 23.5 84 2.0 WSW 24 35 13 19 1011.7 1008.4 2.8
06/08:00pm 27.6 27.3 21.9 71 3.9 WSW 26 44 14 24 1011.4 1008.1 2.8
06/07:49pm 26.6 25.5 21.1 72 3.7 NW 28 48 15 26 1011.3 1008.0 2.2
06/07:48pm 27.2 26.2 21.2 69 4.0 NW 28 43 15 23 1011.3 1008.0 1.6
06/07:30pm 31.4 33.8 20.0 50 7.6 SW 7 11 4 6 1010.7 1007.5 0.2
06/07:00pm 31.8 33.8 18.7 45 8.7 SSW 6 9 3 5 1010.4 1007.1 0.2
06/06:30pm 32.6 34.9 19.5 46 8.8 NNE 6 7 3 4 1009.8 1006.5 0.2
06/06:00pm 33.3 34.7 18.6 41 9.7 NNE 9 11 5 6 1009.5 1006.2 0.2
06/05:30pm 34.0 34.8 17.2 36 10.9 NE 9 13 5 7 1009.5 1006.2 0.2
06/05:00pm 34.4 34.2 17.6 37 11.0 NE 15 20 8 11 1009.6 1006.3 0.2
06/04:30pm 34.8 35.5 17.1 35 11.5 NE 9 13 5 7 1009.7 1006.4 0.2
06/04:00pm 35.3 34.5 17.0 33 11.9 ENE 17 26 9 14 1009.8 1006.5 0.2
06/03:30pm 34.9 34.9 17.2 35 11.5 N 13 22 7 12 1010.1 1006.8 0.2
06/03:00pm 34.6 34.6 17.3 35 11.3 ENE 13 24 7 13 1010.4 1007.1 0.2
06/02:30pm 34.4 34.0 18.0 37 10.8 NE 17 26 9 14 1010.7 1007.5 0.2
06/02:00pm 35.1 34.6 16.9 34 11.8 NNE 15 32 8 17 1011.0 1007.8 0.2
06/01:30pm 34.5 33.6 17.7 37 11.0 NNE 19 26 10 14 1011.6 1008.3 0.2
06/01:00pm 33.9 33.1 17.2 37 10.9 NE 17 30 9 16 1011.9 1008.6 0.2
06/12:30pm 33.2 32.1 17.4 39 10.3 NE 19 26 10 14 1012.5 1009.2 0.2
06/12:00pm 32.3 30.9 16.6 39 10.1 NE 19 28 10 15 1013.0 1009.8 0.2
06/11:30am 31.6 29.3 17.5 43 9.1 ENE 26 37 14 20 1013.4 1010.2 0.2
06/11:00am 31.0 28.4 17.7 45 8.6 ENE 28 37 15 20 1013.8 1010.5 0.2
06/10:30am 30.2 27.4 17.3 46 8.3 ENE 28 39 15 21 1014.3 1011.0 0.2
06/10:00am 29.7 27.3 18.2 50 7.5 ENE 28 39 15 21 1014.3 1011.0 0.2
06/09:30am 29.0 28.0 19.6 57 6.2 ENE 24 35 13 19 1014.1 1010.8 0.2
06/09:00am 27.9 27.2 20.2 63 5.1 ENE 24 37 13 20 1014.0 1010.7 5.0
06/08:30am 26.8 24.9 20.2 67 4.4 ENE 30 37 16 20 1013.9 1010.6 5.0
06/08:00am 26.1 25.9 19.7 68 4.2 ENE 20 28 11 15 1014.3 1011.0 5.0
06/07:30am 25.3 26.8 20.5 75 3.2 ENE 13 19 7 10 1014.2 1010.9 5.0
06/07:00am 24.3 25.9 22.2 88 1.4 ENE 17 22 9 12 1014.2 1010.9 5.0
06/06:30am 23.5 25.7 23.2 98 0.2 ENE 17 20 9 11 1013.7 1010.4 5.0
06/06:00am 23.3 25.3 23.0 98 0.2 ENE 17 20 9 11 1013.4 1010.2 5.0
06/05:30am 23.6 25.8 23.3 98 0.2 ENE 17 20 9 11 1013.1 1009.9 5.0
06/05:00am 23.3 25.3 23.0 98 0.2 ENE 17 20 9 11 1012.9 1009.7 5.0
06/04:30am 23.5 26.0 23.2 98 0.2 ENE 15 20 8 11 1013.0 1009.8 5.0
06/04:00am 23.5 26.0 23.2 98 0.2 ENE 15 19 8 10 1012.8 1009.5 5.0
06/03:30am 23.7 26.7 23.4 98 0.2 ENE 13 19 7 10 1012.9 1009.7 5.0
06/03:00am 23.9 25.3 23.6 98 0.2 E 22 30 12 16 1013.1 1009.9 5.0
06/02:30am 24.2 25.5 23.3 95 0.6 E 22 30 12 16 1013.3 1010.1 5.0
06/02:00am 24.3 27.3 24.0 98 0.2 ENE 15 24 8 13 1013.6 1010.3 5.0
06/01:30am 24.6 26.4 23.6 94 0.7 E 20 28 11 15 1013.9 1010.6 5.0
06/01:00am 24.6 26.1 24.3 98 0.2 ESE 24 35 13 19 1014.1 1010.8 5.0
06/12:30am 25.3 27.5 23.9 92 1.0 E 19 30 10 16 1015.0 1011.7 5.0
06/12:00am 25.0 30.1 24.7 98 0.2 NE 6 13 3 7 1014.9 1011.6 5.0
 
Date/Time
WST
Temp
°C
App
Temp
°C
Dew
Point
Rel
Hum
%
Delta-T
°C
Wind Press
QNH
hPa
Press
MSL
hPa
Rain
since 9 am
mm
Dir
 
Spd
km/h
Gust
km/h
Spd
kts
Gust
kts
05/11:30pm 24.6 28.9 24.3 98 0.2 E 9 13 5 7 1014.8 1011.5 5.0
05/11:00pm 23.9 28.4 23.9 100 0.0 ESE 7 11 4 6 1014.8 1011.5 5.0
05/10:30pm 23.6 27.5 23.6 100 0.0 SE 9 11 5 6 1014.8 1011.5 5.0
05/10:00pm 23.9 28.0 23.9 100 0.0 SW 9 11 5 6 1014.8 1011.5 5.0
05/09:30pm 23.8 28.8 23.8 100 0.0 SE 4 9 2 5 1014.9 1011.6 5.0
05/09:26pm 23.8 29.0 23.6 99 0.1 ESE 2 9 1 5 1015.0 1011.7 5.0
05/09:06pm 24.2 24.7 23.9 98 0.2 ENE 28 41 15 22 1015.0 1011.7 3.6
05/09:00pm 25.9 27.2 23.4 86 1.7 ENE 22 35 12 19 1015.0 1011.7 2.0
05/08:30pm 27.1 31.4 25.5 91 1.1 NW 13 17 7 9 1013.9 1010.6 1.8
05/08:00pm 26.9 34.4 26.6 98 0.2 CALM 0 4 0 2 1013.3 1010.1 1.8
05/07:30pm 27.5 31.8 23.7 80 2.6 WSW 7 11 4 6 1012.8 1009.5 1.8
05/07:00pm 27.6 33.2 25.8 90 1.3 WNW 7 9 4 5 1012.5 1009.2 1.8
05/06:30pm 28.3 32.5 24.1 78 2.9 WSW 9 13 5 7 1011.8 1008.5 1.8
05/06:00pm 28.4 31.0 23.3 74 3.5 WSW 15 26 8 14 1011.7 1008.4 1.8
05/05:53pm 28.2 30.3 23.8 77 3.1 WSW 19 26 10 14 1011.6 1008.3 1.8
05/05:31pm 29.2 29.2 22.4 66 4.7 WSW 26 35 14 19 1011.3 1008.0 0.2
05/05:30pm 29.5 28.6 21.4 61 5.5 WSW 28 35 15 19 1011.0 1007.8 0.2
05/05:27pm 29.4 29.4 21.6 63 5.3 WSW 24 35 13 19 1010.9 1007.7 0.2
05/05:00pm 31.1 31.6 20.1 52 7.4 ESE 17 26 9 14 1010.7 1007.5 0.2
05/04:30pm 33.2 32.0 19.3 44 9.3 NE 24 32 13 17 1010.6 1007.3 0.2
05/04:00pm 33.4 33.1 19.1 42 9.5 ENE 19 32 10 17 1010.7 1007.5 0.2
05/03:30pm 34.2 33.6 19.8 42 9.7 NE 22 33 12 18 1010.6 1007.3 0.2
05/03:00pm 33.9 33.3 18.8 41 10.0 NE 20 30 11 16 1010.8 1007.6 0.2
05/02:30pm 33.6 33.6 19.7 44 9.3 NE 19 24 10 13 1011.3 1008.0 0.2
05/02:00pm 33.1 32.5 18.8 42 9.5 NNE 20 30 11 16 1011.8 1008.5 0.2
05/01:30pm 32.5 31.1 18.7 44 9.1 ENE 24 50 13 27 1012.2 1008.9 0.2
05/01:00pm 31.4 31.3 18.7 46 8.4 E 17 26 9 14 1012.6 1009.3 0.2
05/12:30pm 30.9 31.4 19.3 50 7.7 ESE 15 22 8 12 1013.1 1009.9 0.2
05/12:00pm 30.9 30.7 19.3 50 7.7 E 19 30 10 16 1013.6 1010.3 0.2
05/11:30am 29.1 29.8 18.8 53 6.8 ENE 13 20 7 11 1014.0 1010.7 0.2
05/11:00am 28.0 26.5 17.8 54 6.6 E 22 32 12 17 1014.3 1011.0 0.2
05/10:30am 28.2 26.5 18.9 57 6.1 E 26 37 14 20 1014.5 1011.2 0.2
05/10:00am 26.4 24.3 18.0 60 5.4 ENE 26 44 14 24 1014.9 1011.6 0.2
05/09:30am 25.4 23.6 17.8 62 4.9 E 24 32 13 17 1014.9 1011.6 0.2
05/09:00am 24.3 22.6 18.2 68 3.9 ESE 24 30 13 16 1014.8 1011.5 5.6
05/08:30am 23.1 20.3 18.2 74 3.1 ESE 30 39 16 21 1014.8 1011.5 5.6
05/08:00am 22.8 20.6 18.6 77 2.7 ESE 28 41 15 22 1014.7 1011.4 5.6
05/07:30am 21.7 20.3 18.9 84 1.8 ESE 24 35 13 19 1014.8 1011.5 5.6
05/07:00am 21.7 19.8 18.5 82 2.0 ESE 26 35 14 19 1014.6 1011.3 5.6
05/06:30am 21.2 19.3 18.6 85 1.7 ESE 26 32 14 17 1014.6 1011.3 5.6
05/06:00am 21.0 19.6 18.8 87 1.4 ESE 24 32 13 17 1014.4 1011.1 5.6
05/05:30am 21.2 18.9 18.4 84 1.8 ESE 28 39 15 21 1014.3 1011.0 5.6
05/05:00am 21.4 19.5 18.6 84 1.8 ESE 26 37 14 20 1014.1 1010.8 5.6
05/04:30am 21.5 19.7 18.7 84 1.8 ESE 26 35 14 19 1014.1 1010.8 5.6
05/04:00am 21.7 20.8 19.8 89 1.2 ESE 24 33 13 18 1013.6 1010.3 5.6
05/03:30am 22.1 20.6 19.5 85 1.7 E 26 37 14 20 1013.6 1010.3 5.6
05/03:00am 22.4 21.8 19.8 85 1.7 E 22 30 12 16 1013.6 1010.3 5.6
05/02:30am 22.6 22.1 19.9 85 1.8 ESE 22 32 12 17 1013.9 1010.6 5.6
05/02:00am 22.6 22.7 21.8 95 0.5 ESE 24 37 13 20 1014.3 1011.0 5.6
05/01:30am 22.5 22.8 22.2 98 0.2 ESE 24 33 13 18 1014.7 1011.4 5.6
05/01:00am 22.6 23.7 22.3 98 0.2 ESE 20 32 11 17 1015.2 1012.0 5.6
05/12:30am 22.8 24.2 22.5 98 0.2 ESE 19 28 10 15 1015.7 1012.5 5.6
05/12:00am 22.9 24.7 22.6 98 0.2 ESE 17 22 9 12 1015.9 1012.7 5.6
 
Date/Time
WST
Temp
°C
App
Temp
°C
Dew
Point
Rel
Hum
%
Delta-T
°C
Wind Press
QNH
hPa
Press
MSL
hPa
Rain
since 9 am
mm
Dir
 
Spd
km/h
Gust
km/h
Spd
kts
Gust
kts
04/11:30pm 22.8 23.6 22.5 98 0.2 ESE 22 32 12 17 1015.7 1012.5 5.6
04/11:00pm 22.6 23.0 22.4 99 0.1 ESE 24 35 13 19 1015.9 1012.7 5.6
04/10:30pm 22.8 24.0 22.5 98 0.2 ESE 20 26 11 14 1016.2 1012.9 5.0
04/10:00pm 22.6 23.7 22.4 99 0.1 E 20 28 11 15 1016.1 1012.8 4.8
04/09:30pm 22.4 22.7 22.2 99 0.1 E 24 33 13 18 1015.9 1012.7 4.0
04/09:00pm 23.0 23.5 22.7 98 0.2 E 24 32 13 17 1015.9 1012.7 3.8
04/08:30pm 22.6 23.3 22.3 98 0.2 E 22 33 12 18 1015.4 1012.2 3.8
04/08:02pm 23.0 22.8 22.8 99 0.1 E 28 46 15 25 1014.9 1011.6 3.4
04/08:00pm 22.4 21.5 22.2 99 0.1 E 30 46 16 25 1015.0 1011.7 3.4
04/07:30pm 23.9 24.6 23.6 98 0.2 E 26 37 14 20 1014.7 1011.4 3.0
04/07:00pm 23.8 24.9 23.6 99 0.1 E 24 33 13 18 1013.6 1010.3 3.0
04/06:30pm 23.8 25.6 23.5 98 0.2 E 20 30 11 16 1013.3 1010.1 3.0
04/06:00pm 23.8 24.5 23.6 99 0.1 ESE 26 37 14 20 1012.8 1009.5 3.0
04/05:30pm 23.9 25.8 23.7 99 0.1 ESE 20 30 11 16 1013.2 1010.0 3.0
04/05:00pm 23.7 25.8 23.7 100 0.0 E 19 24 10 13 1013.2 1010.0 3.0
04/04:30pm 24.0 24.8 23.8 99 0.1 E 26 39 14 21 1013.6 1010.3 1.6
04/04:00pm 24.8 26.5 24.6 99 0.1 E 24 32 13 17 1012.9 1009.7 1.0
04/03:37pm 25.7 28.6 25.4 98 0.2 E 20 32 11 17 1012.7 1009.4 0.8
04/03:30pm 25.9 29.1 25.6 98 0.2 E 19 24 10 13 1012.6 1009.3 0.8
04/03:19pm 25.7 29.2 25.4 98 0.2 E 17 24 9 13 1012.6 1009.3 0.8
04/03:00pm 25.5 29.3 25.3 99 0.1 ENE 15 20 8 11 1012.7 1009.4 0.8
04/02:30pm 25.0 27.5 24.8 99 0.1 ENE 20 30 11 16 1013.0 1009.8 0.2
04/02:00pm 25.8 25.6 24.0 90 1.3 ENE 32 44 17 24 1013.1 1009.9 0.2
04/01:30pm 26.8 26.4 23.7 83 2.2 ENE 32 43 17 23 1012.8 1009.5 0.2
04/01:18pm 26.7 26.5 22.8 79 2.7 ENE 28 46 15 25 1012.6 1009.3 0.2
04/01:00pm 26.4 26.9 22.7 80 2.5 ENE 24 37 13 20 1012.9 1009.7 0.2
04/12:30pm 26.1 26.8 23.0 83 2.1 ENE 24 33 13 18 1013.3 1010.1 0.2

Other Formats:

Comma delimited format used in spreadsheet applications
http://www.bom.gov.au/fwo/IDW60801/IDW60801.94316.axf

JavaScript Object Notation format (JSON) in row-major order
http://www.bom.gov.au/fwo/IDW60801/IDW60801.94316.json